createdAt,value
2019-02-05T00:01:43.067Z,-1.60
2019-02-05T00:04:14.748Z,-1.57
2019-02-05T00:06:46.523Z,-1.53
2019-02-05T00:09:18.203Z,-1.52
2019-02-05T00:11:49.908Z,-1.57
2019-02-05T00:14:21.595Z,-1.49
2019-02-05T00:16:53.389Z,-1.47
2019-02-05T00:19:25.060Z,-1.42
2019-02-05T00:21:56.737Z,-1.34
2019-02-05T00:24:28.432Z,-1.31
2019-02-05T00:27:00.489Z,-1.28
2019-02-05T00:29:32.169Z,-1.30
2019-02-05T00:32:03.789Z,-1.38
2019-02-05T00:34:35.391Z,-1.35
2019-02-05T00:37:07.119Z,-1.28
2019-02-05T00:39:39.461Z,-1.30
2019-02-05T00:42:11.356Z,-1.27
2019-02-05T00:44:43.314Z,-1.31
2019-02-05T00:47:15.011Z,-1.26
2019-02-05T00:49:46.602Z,-1.26
2019-02-05T00:52:18.557Z,-1.28
2019-02-05T00:54:50.152Z,-1.34
2019-02-05T00:57:21.859Z,-1.36
2019-02-05T00:59:53.524Z,-1.33
2019-02-05T01:02:25.141Z,-1.38
2019-02-05T01:04:57.105Z,-1.35
2019-02-05T01:07:28.813Z,-1.42
2019-02-05T01:10:00.492Z,-1.46
2019-02-05T01:12:32.202Z,-1.36
2019-02-05T01:15:04.430Z,-1.34
2019-02-05T01:17:37.613Z,-1.47
2019-02-05T01:20:11.938Z,-1.46
2019-02-05T01:22:43.651Z,-1.48
2019-02-05T01:25:16.993Z,-1.49
2019-02-05T01:27:48.699Z,-1.50
2019-02-05T01:30:22.396Z,-1.56
2019-02-05T01:32:54.098Z,-1.56
2019-02-05T01:35:25.791Z,-1.60
2019-02-05T01:37:57.504Z,-1.60
2019-02-05T01:40:29.499Z,-1.62
2019-02-05T01:43:01.213Z,-1.63
2019-02-05T01:45:32.925Z,-1.63
2019-02-05T01:48:04.628Z,-1.64
2019-02-05T01:50:36.315Z,-1.68
2019-02-05T01:53:08.302Z,-1.68
2019-02-05T01:55:40.074Z,-1.68
2019-02-05T01:58:11.758Z,-1.70
2019-02-05T02:00:43.366Z,-1.74
2019-02-05T02:03:15.107Z,-1.76
2019-02-05T02:05:47.319Z,-1.77
2019-02-05T02:08:19.017Z,-1.75
2019-02-05T02:10:50.728Z,-1.72
2019-02-05T02:13:22.420Z,-1.74
2019-02-05T02:15:54.121Z,-1.75
2019-02-05T02:18:26.092Z,-1.73
2019-02-05T02:20:57.700Z,-1.75
2019-02-05T02:23:29.406Z,-1.70
2019-02-05T02:26:01.093Z,-1.75
2019-02-05T02:28:32.817Z,-1.76
2019-02-05T02:31:04.682Z,-1.84
2019-02-05T02:33:36.449Z,-1.79
2019-02-05T02:36:08.140Z,-1.83
2019-02-05T02:38:40.849Z,-1.86
2019-02-05T02:41:13.045Z,-1.89
2019-02-05T02:43:44.771Z,-1.87
2019-02-05T02:46:16.472Z,-1.91
2019-02-05T02:48:48.191Z,-1.92
2019-02-05T02:51:19.858Z,-1.94
2019-02-05T02:53:51.552Z,-1.96
2019-02-05T02:56:23.243Z,-1.98
2019-02-05T02:58:54.962Z,-1.96
2019-02-05T03:01:26.763Z,-1.94
2019-02-05T03:03:58.479Z,-1.93
2019-02-05T03:06:30.150Z,-1.91
2019-02-05T03:09:02.147Z,-1.82
2019-02-05T03:11:35.433Z,-1.79
2019-02-05T03:14:08.118Z,-1.75
2019-02-05T03:16:40.087Z,-1.72
2019-02-05T03:19:11.856Z,-1.79
2019-02-05T03:21:44.303Z,-1.82
2019-02-05T03:24:16.293Z,-1.94
2019-02-05T03:26:48.061Z,-1.90
2019-02-05T03:29:19.755Z,-1.87
2019-02-05T03:31:51.446Z,-1.91
2019-02-05T03:34:23.086Z,-1.92
2019-02-05T03:36:54.936Z,-1.98
2019-02-05T03:39:26.647Z,-1.99
2019-02-05T03:41:58.324Z,-1.96
2019-02-05T03:44:30.041Z,-2.04
2019-02-05T03:47:01.772Z,-2.08
2019-02-05T03:49:33.834Z,-2.07
2019-02-05T03:52:14.761Z,-2.15
2019-02-05T03:55:38.602Z,-2.14
2019-02-05T03:58:43.420Z,-2.12
2019-02-05T04:01:49.371Z,-2.08
2019-02-05T04:05:05.900Z,-2.08
2019-02-05T04:08:22.173Z,-2.13
2019-02-05T04:11:49.851Z,-2.17
2019-02-05T04:15:10.753Z,-2.13
2019-02-05T04:18:38.473Z,-2.15
2019-02-05T04:22:01.037Z,-2.14
2019-02-05T04:25:13.607Z,-2.10
2019-02-05T04:28:38.273Z,-2.14
2019-02-05T04:31:50.396Z,-2.17
2019-02-05T04:35:10.572Z,-2.14
2019-02-05T04:38:15.719Z,-2.16
2019-02-05T04:41:14.266Z,-2.10
2019-02-05T04:44:15.860Z,-2.06
2019-02-05T04:47:33.635Z,-2.15
2019-02-05T04:50:13.908Z,-2.09
2019-02-05T04:53:20.186Z,-2.05
2019-02-05T04:56:15.147Z,-2.13
2019-02-05T04:59:22.398Z,-2.08
2019-02-05T05:02:22.604Z,-2.07
2019-02-05T05:05:31.697Z,-2.02
2019-02-05T05:08:38.777Z,-1.95
2019-02-05T05:11:10.455Z,-1.97
2019-02-05T05:13:42.517Z,-2.02
2019-02-05T05:16:14.342Z,-2.00
2019-02-05T05:18:46.279Z,-2.00
2019-02-05T05:21:18.072Z,-2.08
2019-02-05T05:23:50.014Z,-2.17
2019-02-05T05:26:21.976Z,-2.14
2019-02-05T05:28:53.759Z,-2.15
2019-02-05T05:31:25.388Z,-2.15
2019-02-05T05:33:57.098Z,-2.09
2019-02-05T05:36:28.802Z,-2.09
2019-02-05T05:39:00.882Z,-2.14
2019-02-05T05:41:34.135Z,-2.18
2019-02-05T05:44:05.849Z,-2.23
2019-02-05T05:46:37.653Z,-2.25
2019-02-05T05:49:09.453Z,-2.33
2019-02-05T05:51:41.494Z,-2.31
2019-02-05T05:54:13.507Z,-2.36
2019-02-05T05:56:45.189Z,-2.43
2019-02-05T05:59:16.977Z,-2.54
2019-02-05T06:01:48.760Z,-2.63
2019-02-05T06:04:20.487Z,-2.72
2019-02-05T06:06:52.263Z,-2.74
2019-02-05T06:09:24.976Z,-2.76
2019-02-05T06:11:56.663Z,-2.75
2019-02-05T06:14:28.357Z,-2.75
2019-02-05T06:16:59.995Z,-2.76
2019-02-05T06:19:31.978Z,-2.76
2019-02-05T06:22:03.678Z,-2.77
2019-02-05T06:24:35.305Z,-2.79
2019-02-05T06:27:06.995Z,-2.73
2019-02-05T06:29:38.802Z,-2.67
2019-02-05T06:32:10.750Z,-2.74
2019-02-05T06:34:42.474Z,-2.73
2019-02-05T06:37:14.331Z,-2.77
2019-02-05T06:39:46.261Z,-2.76
2019-02-05T06:42:17.974Z,-2.77
2019-02-05T06:44:49.977Z,-2.79
2019-02-05T06:47:21.703Z,-2.76
2019-02-05T06:49:53.645Z,-2.78
2019-02-05T06:52:25.363Z,-2.82
2019-02-05T06:54:57.301Z,-2.82
2019-02-05T06:57:29.189Z,-2.86
2019-02-05T07:00:00.806Z,-2.87
2019-02-05T07:02:32.695Z,-2.86
2019-02-05T07:05:04.368Z,-2.88
2019-02-05T07:07:36.216Z,-2.88
2019-02-05T07:10:10.827Z,-2.89
2019-02-05T07:12:42.473Z,-2.89
2019-02-05T07:15:15.158Z,-2.83
2019-02-05T07:17:49.919Z,-2.86
2019-02-05T07:20:20.230Z,-2.74
2019-02-05T07:22:52.350Z,-2.67
2019-02-05T07:25:28.394Z,-2.64
2019-02-05T07:28:00.552Z,-2.38
2019-02-05T07:30:32.707Z,-2.34
2019-02-05T07:33:04.403Z,-2.23
2019-02-05T07:35:36.165Z,-2.01
2019-02-05T07:38:07.884Z,-1.68
2019-02-05T07:40:39.661Z,-1.76
2019-02-05T07:43:11.837Z,-1.55
2019-02-05T07:45:43.520Z,-1.35
2019-02-05T07:48:15.173Z,-1.32
2019-02-05T07:50:47.224Z,-1.03
2019-02-05T07:53:18.941Z,-0.84
2019-02-05T07:55:50.637Z,-0.71
2019-02-05T07:58:23.320Z,-0.81
2019-02-05T08:00:55.089Z,-0.69
2019-02-05T08:03:26.892Z,-0.67
2019-02-05T08:05:58.790Z,-0.48
2019-02-05T08:08:30.518Z,-0.22
2019-02-05T08:11:02.381Z,-0.26
2019-02-05T08:13:34.134Z,-0.09
2019-02-05T08:16:05.890Z,-0.06
2019-02-05T08:18:37.586Z,-0.11
2019-02-05T08:21:09.539Z,-0.34
2019-02-05T08:23:41.445Z,0.08
2019-02-05T08:26:13.396Z,-0.02
2019-02-05T08:28:45.167Z,0.21
2019-02-05T08:31:16.894Z,0.03
2019-02-05T08:33:48.863Z,0.40
2019-02-05T08:36:21.543Z,0.52
2019-02-05T08:38:53.340Z,0.54
2019-02-05T08:41:24.955Z,0.59
2019-02-05T08:43:56.669Z,0.51
2019-02-05T08:46:28.403Z,0.35
2019-02-05T08:49:00.203Z,0.82
2019-02-05T08:51:31.866Z,1.57
2019-02-05T08:54:03.633Z,2.00
2019-02-05T08:56:35.536Z,2.71
2019-02-05T08:59:07.318Z,6.21
2019-02-05T09:01:39.513Z,8.97
2019-02-05T09:04:11.401Z,8.28
2019-02-05T09:06:43.348Z,8.92
2019-02-05T09:09:15.139Z,7.36
2019-02-05T09:11:46.913Z,5.83
2019-02-05T09:14:18.521Z,8.12
2019-02-05T09:16:50.148Z,12.65
2019-02-05T09:19:21.805Z,13.24
2019-02-05T09:21:53.574Z,15.06
2019-02-05T09:24:25.302Z,13.06
2019-02-05T09:27:06.025Z,10.85
2019-02-05T09:29:37.736Z,12.21
2019-02-05T09:32:09.555Z,15.94
2019-02-05T09:34:41.404Z,13.71
2019-02-05T09:37:13.316Z,10.62
2019-02-05T09:39:45.015Z,7.94
2019-02-05T09:42:16.620Z,6.35
2019-02-05T09:44:48.378Z,4.26
2019-02-05T09:47:20.033Z,3.83
2019-02-05T09:49:51.652Z,4.09
2019-02-05T09:52:23.318Z,4.12
2019-02-05T09:54:55.284Z,3.96
2019-02-05T09:57:27.020Z,4.24
2019-02-05T09:59:58.728Z,4.99
2019-02-05T10:02:30.354Z,4.25
2019-02-05T10:05:02.068Z,4.67
2019-02-05T10:07:34.009Z,3.42
2019-02-05T10:10:06.171Z,3.62
2019-02-05T10:12:37.842Z,3.65
2019-02-05T10:15:13.067Z,3.59
2019-02-05T10:17:44.774Z,3.61
2019-02-05T10:20:16.617Z,3.13
2019-02-05T10:22:48.430Z,3.16
2019-02-05T10:25:20.206Z,3.43
2019-02-05T10:27:51.813Z,3.34
2019-02-05T10:30:25.894Z,4.21
2019-02-05T10:32:57.687Z,6.40
2019-02-05T10:35:29.397Z,6.01
2019-02-05T10:38:01.082Z,5.76
2019-02-05T10:40:33.845Z,4.75
2019-02-05T10:43:05.856Z,4.31
2019-02-05T10:45:37.529Z,5.30
2019-02-05T10:48:10.383Z,6.30
2019-02-05T10:50:42.084Z,7.26
2019-02-05T10:53:13.910Z,5.97
2019-02-05T10:55:45.550Z,5.19
2019-02-05T10:58:17.213Z,4.54
2019-02-05T11:00:49.109Z,4.36
2019-02-05T11:03:20.885Z,4.06
2019-02-05T11:05:52.676Z,4.04
2019-02-05T11:10:54.904Z,3.07
2019-02-05T11:13:26.670Z,3.23
2019-02-05T11:15:58.392Z,3.10
2019-02-05T11:18:30.510Z,3.22
2019-02-05T11:21:04.310Z,3.49
2019-02-05T11:23:35.693Z,3.36
2019-02-05T11:26:07.419Z,3.42
2019-02-05T11:28:39.492Z,3.15
2019-02-05T11:31:11.350Z,3.40
2019-02-05T11:33:43.280Z,3.49
2019-02-05T11:36:14.956Z,3.16
2019-02-05T11:38:46.650Z,3.19
2019-02-05T11:41:18.290Z,3.15
2019-02-05T11:43:51.059Z,2.72
2019-02-05T11:46:22.864Z,2.64
2019-02-05T11:48:54.972Z,2.40
2019-02-05T11:51:26.678Z,2.35
2019-02-05T11:53:58.373Z,2.31
2019-02-05T11:56:30.082Z,2.20
2019-02-05T11:59:01.753Z,2.17
2019-02-05T12:01:39.023Z,2.09
2019-02-05T12:04:08.619Z,2.12
2019-02-05T12:06:40.518Z,2.21
2019-02-05T12:09:24.156Z,2.21
2019-02-05T12:11:56.002Z,2.15
2019-02-05T12:14:28.096Z,2.17
2019-02-05T12:16:59.860Z,2.23
2019-02-05T12:19:31.565Z,2.08
2019-02-05T12:22:03.259Z,2.02
2019-02-05T12:24:34.942Z,2.16
2019-02-05T12:27:06.552Z,2.28
2019-02-05T12:29:38.235Z,2.23
2019-02-05T12:32:10.154Z,2.23
2019-02-05T12:34:43.289Z,2.29
2019-02-05T12:37:14.911Z,2.28
2019-02-05T12:39:46.614Z,2.34
2019-02-05T12:42:18.398Z,2.27
2019-02-05T12:44:50.085Z,2.38
2019-02-05T12:47:22.077Z,2.52
2019-02-05T12:49:53.790Z,2.47
2019-02-05T12:52:25.449Z,2.49
2019-02-05T12:54:57.137Z,2.49
2019-02-05T12:57:28.778Z,2.30
2019-02-05T13:00:00.927Z,2.21
2019-02-05T13:02:32.942Z,2.23
2019-02-05T13:05:04.629Z,2.18
2019-02-05T13:07:36.322Z,2.28
2019-02-05T13:10:09.696Z,2.03
2019-02-05T13:12:41.681Z,2.06
2019-02-05T13:15:13.520Z,1.95
2019-02-05T13:17:46.292Z,2.04
2019-02-05T13:20:20.694Z,2.07
2019-02-05T13:22:52.439Z,2.06
2019-02-05T13:25:25.564Z,2.07
2019-02-05T13:27:57.262Z,2.11
2019-02-05T13:30:30.524Z,2.04
2019-02-05T13:33:02.244Z,1.98
2019-02-05T13:35:34.306Z,2.13
2019-02-05T13:38:06.378Z,2.16
2019-02-05T13:40:38.074Z,2.16
2019-02-05T13:43:10.039Z,2.20
2019-02-05T13:45:41.759Z,2.11
2019-02-05T13:48:13.840Z,2.04
2019-02-05T13:50:45.631Z,1.97
2019-02-05T13:53:17.400Z,2.03
2019-02-05T13:55:49.092Z,1.95
2019-02-05T13:58:20.804Z,1.95
2019-02-05T14:00:54.554Z,2.02
2019-02-05T14:03:26.226Z,1.94
2019-02-05T14:05:57.911Z,1.97
2019-02-05T14:08:29.598Z,1.99
2019-02-05T14:11:01.300Z,2.01
2019-02-05T14:13:33.288Z,2.00
2019-02-05T14:16:04.977Z,2.03
2019-02-05T14:18:36.708Z,2.06
2019-02-05T14:21:08.450Z,2.00
2019-02-05T14:23:40.159Z,1.97
2019-02-05T14:26:12.144Z,1.99
2019-02-05T14:28:43.854Z,2.02
2019-02-05T14:31:15.569Z,1.94
2019-02-05T14:33:47.273Z,1.84
2019-02-05T14:36:18.892Z,1.90
2019-02-05T14:38:50.980Z,1.84
2019-02-05T14:41:22.600Z,1.82
2019-02-05T14:43:54.320Z,1.78
2019-02-05T14:46:25.976Z,1.83
2019-02-05T14:48:57.684Z,1.79
2019-02-05T14:51:29.651Z,1.78
2019-02-05T14:54:01.400Z,1.78
2019-02-05T14:56:33.140Z,1.74
2019-02-05T14:59:04.888Z,1.74
2019-02-05T15:01:43.064Z,1.71
2019-02-05T15:04:10.176Z,1.67
2019-02-05T15:06:41.856Z,1.65
2019-02-05T15:09:13.550Z,1.72
2019-02-05T15:11:45.216Z,1.61
2019-02-05T15:14:16.916Z,1.67
2019-02-05T15:16:48.596Z,1.57
2019-02-05T15:19:20.307Z,1.64
2019-02-05T15:21:52.005Z,1.72
2019-02-05T15:24:23.688Z,1.63
2019-02-05T15:26:55.363Z,1.56
2019-02-05T15:29:27.043Z,1.66
2019-02-05T15:31:58.707Z,1.66
2019-02-05T15:34:30.669Z,1.54
2019-02-05T15:37:02.368Z,1.53
2019-02-05T15:39:34.088Z,1.55
2019-02-05T15:42:05.754Z,1.56
2019-02-05T15:44:37.458Z,1.51
2019-02-05T15:47:09.152Z,1.47
2019-02-05T15:49:41.274Z,1.41
2019-02-05T15:52:13.214Z,1.35
2019-02-05T15:54:44.902Z,1.25
2019-02-05T15:57:16.610Z,1.24
2019-02-05T15:59:48.333Z,1.17
2019-02-05T16:02:20.021Z,1.21
2019-02-05T16:04:51.712Z,1.17
2019-02-05T16:07:23.404Z,1.22
2019-02-05T16:09:55.073Z,1.25
2019-02-05T16:12:26.766Z,1.25
2019-02-05T16:14:58.386Z,1.20
2019-02-05T16:17:30.088Z,1.16
2019-02-05T16:20:01.783Z,1.08
2019-02-05T16:22:34.595Z,1.03
2019-02-05T16:25:07.483Z,0.98
2019-02-05T16:27:39.406Z,0.99
2019-02-05T16:30:17.391Z,0.92
2019-02-05T16:32:49.076Z,0.95
2019-02-05T16:35:20.721Z,0.98
2019-02-05T16:37:53.222Z,1.01
2019-02-05T16:40:26.233Z,1.01
2019-02-05T16:42:58.302Z,1.00
2019-02-05T16:45:30.030Z,1.01
2019-02-05T16:48:01.708Z,1.02
2019-02-05T16:50:35.903Z,0.95
2019-02-05T16:53:08.366Z,0.97
2019-02-05T16:55:40.190Z,0.96
2019-02-05T16:58:11.878Z,0.99
2019-02-05T17:00:43.559Z,0.97
2019-02-05T17:03:15.644Z,1.02
2019-02-05T17:05:47.340Z,1.06
2019-02-05T17:08:19.028Z,1.05
2019-02-05T17:10:50.721Z,0.99
2019-02-05T17:13:22.413Z,1.00
2019-02-05T17:15:54.128Z,1.07
2019-02-05T17:18:25.826Z,1.01
2019-02-05T17:20:57.578Z,1.10
2019-02-05T17:23:29.594Z,1.15
2019-02-05T17:26:01.369Z,1.14
2019-02-05T17:28:33.415Z,1.15
2019-02-05T17:31:05.136Z,1.15
2019-02-05T17:33:37.862Z,1.12
2019-02-05T17:36:10.124Z,1.16
2019-02-05T17:38:41.745Z,1.12
2019-02-05T17:41:13.464Z,1.11
2019-02-05T17:43:46.334Z,1.20
2019-02-05T17:46:18.181Z,1.25
2019-02-05T17:48:51.318Z,1.24
2019-02-05T17:51:23.235Z,1.20
2019-02-05T17:53:56.409Z,1.23
2019-02-05T17:56:28.411Z,1.16
2019-02-05T17:59:00.079Z,1.14
2019-02-05T18:01:31.797Z,1.24
2019-02-05T18:04:03.502Z,1.14
2019-02-05T18:06:35.196Z,1.19
2019-02-05T18:09:08.283Z,1.21
2019-02-05T18:11:42.271Z,1.16
2019-02-05T18:14:15.175Z,1.13
2019-02-05T18:16:46.854Z,1.12
2019-02-05T18:19:18.535Z,1.18
2019-02-05T18:21:50.582Z,1.19
2019-02-05T18:24:22.203Z,1.25
2019-02-05T18:26:54.055Z,1.23
2019-02-05T18:29:28.866Z,1.23
2019-02-05T18:32:00.610Z,1.27
2019-02-05T18:34:32.354Z,1.22
2019-02-05T18:37:05.278Z,1.21
2019-02-05T18:39:39.952Z,1.24
2019-02-05T18:42:11.070Z,1.26
2019-02-05T18:44:44.313Z,1.24
2019-02-05T18:47:16.272Z,1.23
2019-02-05T18:49:48.036Z,1.25
2019-02-05T18:52:20.345Z,1.33
2019-02-05T18:54:54.968Z,1.34
2019-02-05T18:57:30.163Z,1.32
2019-02-05T19:00:02.246Z,1.29
2019-02-05T19:02:35.956Z,1.30
2019-02-05T19:05:10.440Z,1.31
2019-02-05T19:07:44.582Z,1.32
2019-02-05T19:10:18.503Z,1.30
2019-02-05T19:12:51.714Z,1.32
2019-02-05T19:15:25.505Z,1.28
2019-02-05T19:17:57.429Z,1.31
2019-02-05T19:20:32.236Z,1.34
2019-02-05T19:23:04.559Z,1.34
2019-02-05T19:25:55.183Z,1.36
2019-02-05T19:28:36.122Z,1.36
2019-02-05T19:31:17.303Z,1.40
2019-02-05T19:33:49.176Z,1.40
2019-02-05T19:36:20.900Z,1.38
2019-02-05T19:38:53.681Z,1.33
2019-02-05T19:41:25.387Z,1.39
2019-02-05T19:43:57.103Z,1.40
2019-02-05T19:46:46.349Z,1.41
2019-02-05T19:49:30.320Z,1.41
2019-02-05T19:52:02.443Z,1.46
2019-02-05T19:54:34.162Z,1.42
2019-02-05T19:57:05.951Z,1.42
2019-02-05T19:59:37.786Z,1.43
2019-02-05T20:02:10.790Z,1.49
2019-02-05T20:04:43.127Z,1.44
2019-02-05T20:07:15.034Z,1.47
2019-02-05T20:09:47.973Z,1.46
2019-02-05T20:12:22.471Z,1.45
2019-02-05T20:14:55.191Z,1.51
2019-02-05T20:17:27.185Z,1.57
2019-02-05T20:19:59.129Z,1.59
2019-02-05T20:22:30.841Z,1.54
2019-02-05T20:25:04.488Z,1.52
2019-02-05T20:27:38.832Z,1.56
2019-02-05T20:30:12.568Z,1.55
2019-02-05T20:32:44.315Z,1.53
2019-02-05T20:35:16.246Z,1.54
2019-02-05T20:37:48.384Z,1.47
2019-02-05T20:40:20.249Z,1.54
2019-02-05T20:42:52.512Z,1.54
2019-02-05T20:45:25.602Z,1.53
2019-02-05T20:47:57.640Z,1.56
2019-02-05T20:50:29.469Z,1.54
2019-02-05T20:53:13.644Z,1.59
2019-02-05T20:55:41.807Z,1.58
2019-02-05T20:58:13.783Z,1.51
2019-02-05T21:00:46.567Z,1.53
2019-02-05T21:03:19.602Z,1.58
2019-02-05T21:05:51.386Z,1.61
2019-02-05T21:08:23.465Z,1.66
2019-02-05T21:10:57.726Z,1.58
2019-02-05T21:13:29.469Z,1.68
2019-02-05T21:16:01.677Z,1.59
2019-02-05T21:18:33.460Z,1.58
2019-02-05T21:21:08.736Z,1.66
2019-02-05T21:23:40.927Z,1.63
2019-02-05T21:26:12.769Z,1.70
2019-02-05T21:28:44.600Z,1.62
2019-02-05T21:31:16.453Z,1.73
2019-02-05T21:33:48.267Z,1.70
2019-02-05T21:36:20.617Z,1.68
2019-02-05T21:38:52.694Z,1.72
2019-02-05T21:41:24.520Z,1.72
2019-02-05T21:43:58.224Z,1.70
2019-02-05T21:46:31.585Z,1.70
2019-02-05T21:49:03.336Z,1.69
2019-02-05T21:51:40.480Z,1.73
2019-02-05T21:54:09.722Z,1.70
2019-02-05T21:56:41.562Z,1.73
2019-02-05T21:59:14.810Z,1.75
2019-02-05T22:01:46.675Z,1.74
2019-02-05T22:04:26.714Z,1.71
2019-02-05T22:06:51.857Z,1.70
2019-02-05T22:09:23.611Z,1.72
2019-02-05T22:11:55.488Z,1.69
2019-02-05T22:14:28.253Z,1.74
2019-02-05T22:16:59.935Z,1.77
2019-02-05T22:19:31.690Z,1.83
2019-02-05T22:22:03.448Z,1.80
2019-02-05T22:24:35.252Z,1.77
2019-02-05T22:27:07.240Z,1.75
2019-02-05T22:29:38.860Z,1.75
2019-02-05T22:32:10.653Z,1.77
2019-02-05T22:34:42.485Z,1.76
2019-02-05T22:37:14.370Z,1.79
2019-02-05T22:39:46.241Z,1.81
2019-02-05T22:42:17.931Z,1.82
2019-02-05T22:44:49.783Z,1.84
2019-02-05T22:47:21.543Z,1.78
2019-02-05T22:49:53.315Z,1.79
2019-02-05T22:52:26.117Z,1.88
2019-02-05T22:54:57.799Z,1.70
2019-02-05T22:57:31.662Z,1.63
2019-02-05T23:00:02.910Z,1.55
2019-02-05T23:02:39.040Z,1.53
2019-02-05T23:05:33.872Z,1.53
2019-02-05T23:08:05.687Z,1.52
2019-02-05T23:11:03.330Z,1.52
2019-02-05T23:13:34.359Z,1.54
2019-02-05T23:16:23.494Z,1.59
2019-02-05T23:18:55.285Z,1.61
2019-02-05T23:21:27.079Z,1.69
2019-02-05T23:23:59.172Z,1.64
2019-02-05T23:26:31.893Z,1.63
2019-02-05T23:29:03.609Z,1.62
2019-02-05T23:31:35.639Z,1.62
2019-02-05T23:34:07.375Z,1.69
2019-02-05T23:36:39.483Z,1.71
2019-02-05T23:39:11.391Z,1.76
2019-02-05T23:41:43.264Z,1.75
2019-02-05T23:44:14.934Z,1.74
2019-02-05T23:46:46.697Z,1.81
2019-02-05T23:49:18.609Z,1.80
2019-02-05T23:51:50.226Z,1.75
2019-02-05T23:54:23.040Z,1.82
2019-02-05T23:56:54.798Z,1.81
2019-02-05T23:59:26.520Z,1.87
